Time;durP1;ratioP1;P1;durP2;ratioP2;P2;SDS_P1;SDS_P2;PMS_P1;PMS_P2;Temp;Humidity;BMP_temperature;BMP_pressure;BME280_temperature;BME280_humidity;BME280_pressure;Samples;Min_cycle;Max_cycle;Signal;HPM_P1;HPM_P2
2022/10/19 00:00:47;;;;;;;11.13;5.22;;;18.70;85.70;;;;;;4975908;28;20476;-76
2022/10/19 00:03:14;;;;;;;11.43;4.97;;;18.70;85.60;;;;;;4988315;28;20030;-76
2022/10/19 00:05:39;;;;;;;7.30;4.97;;;18.80;85.50;;;;;;4993794;28;20024;-76
2022/10/19 00:08:05;;;;;;;10.60;5.38;;;18.80;85.50;;;;;;4998721;28;20090;-76
2022/10/19 00:10:31;;;;;;;9.88;4.95;;;18.80;85.30;;;;;;4998686;28;20397;-76
2022/10/19 00:12:57;;;;;;;11.68;4.90;;;18.80;85.20;;;;;;4997992;28;20076;-76
2022/10/19 00:15:23;;;;;;;7.50;4.70;;;18.80;85.40;;;;;;4999030;28;20106;-76
2022/10/19 00:17:49;;;;;;;10.50;5.50;;;18.70;85.50;;;;;;4998496;28;20090;-75
2022/10/19 00:20:15;;;;;;;8.57;4.60;;;18.70;85.60;;;;;;4998215;28;20030;-76
2022/10/19 00:22:41;;;;;;;9.70;5.07;;;18.60;85.70;;;;;;5006378;28;20081;-76
2022/10/19 00:25:07;;;;;;;14.57;4.70;;;18.50;86.00;;;;;;5018173;28;20022;-76
2022/10/19 00:27:32;;;;;;;9.63;5.13;;;18.50;86.10;;;;;;5018237;28;20042;-76
2022/10/19 00:29:58;;;;;;;7.93;5.10;;;18.50;86.10;;;;;;5002995;28;20593;-76
2022/10/19 00:32:24;;;;;;;8.52;5.03;;;18.60;86.00;;;;;;4998013;28;20477;-76
2022/10/19 00:34:49;;;;;;;7.60;4.70;;;18.60;86.00;;;;;;4998446;28;20080;-76
2022/10/19 00:37:15;;;;;;;6.70;4.32;;;18.60;85.90;;;;;;4997375;28;20543;-76
2022/10/19 00:39:40;;;;;;;6.85;4.13;;;18.60;85.90;;;;;;5012975;28;20034;-76
2022/10/19 00:42:10;;;;;;;11.52;5.40;;;18.60;85.80;;;;;;4998086;28;20030;-76
2022/10/19 00:44:36;;;;;;;10.88;4.43;;;18.60;85.60;;;;;;4998585;28;20050;-76
2022/10/19 00:47:06;;;;;;;13.07;4.85;;;18.60;85.70;;;;;;4994392;28;20054;-76
2022/10/19 00:49:40;;;;;;;8.98;5.55;;;18.50;85.70;;;;;;4978055;28;20030;-76
2022/10/19 00:52:09;;;;;;;7.18;5.00;;;18.60;85.80;;;;;;4977438;28;20459;-76
2022/10/19 00:54:39;;;;;;;11.07;5.17;;;18.60;85.60;;;;;;4978630;28;20026;-75
2022/10/19 00:57:06;;;;;;;6.72;4.90;;;18.60;85.70;;;;;;4976900;28;20278;-76
2022/10/19 00:59:32;;;;;;;6.90;4.82;;;18.50;85.70;;;;;;4982600;28;20105;-76
2022/10/19 01:02:00;;;;;;;7.05;5.07;;;18.60;85.60;;;;;;4997819;28;20022;-76
2022/10/19 01:04:28;;;;;;;9.10;4.80;;;18.50;85.70;;;;;;4997953;28;20061;-76
2022/10/19 01:06:54;;;;;;;6.43;4.63;;;18.50;85.70;;;;;;4997261;28;20076;-76
2022/10/19 01:09:20;;;;;;;8.25;4.50;;;18.40;85.90;;;;;;4997232;28;20046;-76
2022/10/19 01:11:55;;;;;;;10.55;4.85;;;18.40;86.00;;;;;;4997192;28;20401;-76
2022/10/19 01:14:53;;;;;;;8.25;5.13;;;18.40;86.00;;;;;;4997587;28;20055;-76
2022/10/19 01:17:19;;;;;;;6.97;4.57;;;18.40;86.10;;;;;;4996837;28;20045;-76
2022/10/19 01:20:13;;;;;;;8.10;5.10;;;18.40;86.10;;;;;;4997711;28;20022;-76
2022/10/19 01:22:57;;;;;;;6.60;4.50;;;18.40;85.90;;;;;;5002347;28;20040;-76
2022/10/19 01:25:44;;;;;;;11.88;4.55;;;18.40;85.90;;;;;;4998772;28;20026;-76
2022/10/19 01:28:28;;;;;;;9.07;4.97;;;18.40;85.80;;;;;;5008611;28;20030;-76
2022/10/19 01:30:56;;;;;;;9.27;4.72;;;18.30;86.10;;;;;;4997275;28;20035;-76
2022/10/19 01:33:32;;;;;;;11.00;5.13;;;18.30;86.20;;;;;;4986075;28;20054;-76
2022/10/19 01:36:19;;;;;;;5.88;4.72;;;18.30;86.10;;;;;;4977767;28;20062;-76
2022/10/19 01:38:53;;;;;;;10.65;4.72;;;18.30;86.30;;;;;;4977766;28;20115;-76
2022/10/19 01:41:45;;;;;;;14.20;5.35;;;18.30;86.30;;;;;;4985470;28;20049;-76
2022/10/19 01:44:20;;;;;;;10.95;5.18;;;18.30;86.20;;;;;;4995086;28;20045;-76
2022/10/19 01:46:52;;;;;;;8.80;5.30;;;18.30;86.20;;;;;;5012070;28;20018;-76
2022/10/19 01:49:41;;;;;;;10.63;5.20;;;18.30;86.20;;;;;;4997046;28;20034;-76
2022/10/19 01:52:11;;;;;;;6.60;4.43;;;18.30;86.00;;;;;;4978366;28;20038;-75
2022/10/19 01:54:43;;;;;;;16.83;4.95;;;18.30;85.90;;;;;;4977522;28;20026;-76
2022/10/19 01:57:12;;;;;;;7.20;4.95;;;18.30;86.00;;;;;;4977804;28;20070;-76
2022/10/19 01:59:38;;;;;;;6.60;4.15;;;18.30;85.80;;;;;;4977421;28;20442;-76
2022/10/19 02:02:07;;;;;;;11.27;5.28;;;18.30;85.70;;;;;;4991573;28;20485;-76
2022/10/19 02:04:35;;;;;;;9.55;4.85;;;18.30;86.00;;;;;;4977459;28;20489;-75
2022/10/19 02:07:03;;;;;;;7.20;4.45;;;18.30;85.90;;;;;;4977194;28;20478;-76
2022/10/19 02:09:29;;;;;;;9.02;5.43;;;18.30;86.00;;;;;;4986892;28;20041;-76
2022/10/19 02:11:58;;;;;;;8.05;4.35;;;18.20;86.10;;;;;;4996532;28;20027;-76
2022/10/19 02:14:29;;;;;;;10.57;5.13;;;18.20;86.00;;;;;;4996332;28;20523;-76
2022/10/19 02:17:15;;;;;;;7.03;4.47;;;18.20;86.10;;;;;;4995837;28;20045;-76
2022/10/19 02:19:41;;;;;;;9.25;5.13;;;18.30;86.10;;;;;;4996375;28;20659;-76
2022/10/19 02:22:08;;;;;;;10.25;4.57;;;18.30;86.10;;;;;;4998514;28;20033;-76
2022/10/19 02:24:34;;;;;;;7.68;4.93;;;18.20;86.00;;;;;;5016128;28;20539;-76
2022/10/19 02:27:03;;;;;;;11.27;4.40;;;18.20;85.90;;;;;;5015882;28;20025;-76
2022/10/19 02:29:30;;;;;;;10.80;5.05;;;18.10;86.10;;;;;;5015418;28;20022;-76
2022/10/19 02:31:55;;;;;;;8.85;4.88;;;18.20;86.30;;;;;;5002972;28;20046;-76
2022/10/19 02:34:21;;;;;;;6.43;4.32;;;18.20;86.20;;;;;;4996274;28;20031;-76
2022/10/19 02:36:47;;;;;;;10.32;4.68;;;18.10;86.20;;;;;;4995587;28;20357;-76
2022/10/19 02:39:13;;;;;;;8.45;5.07;;;18.10;86.30;;;;;;4995980;28;20069;-76
2022/10/19 02:41:48;;;;;;;8.90;4.90;;;18.10;86.30;;;;;;4995728;28;20085;-75
2022/10/19 02:44:19;;;;;;;7.97;4.57;;;18.10;86.50;;;;;;4995619;28;20045;-76
2022/10/19 02:46:50;;;;;;;7.97;4.70;;;18.10;86.40;;;;;;4994619;28;20046;-76
2022/10/19 02:49:17;;;;;;;9.77;5.07;;;18.10;86.40;;;;;;4996031;28;20042;-76
2022/10/19 02:51:57;;;;;;;7.88;5.28;;;18.00;86.50;;;;;;4995588;28;20033;-76
2022/10/19 02:54:23;;;;;;;9.32;5.03;;;18.00;86.80;;;;;;5009165;28;20395;-76
2022/10/19 02:56:49;;;;;;;12.90;4.78;;;18.00;86.80;;;;;;4985098;28;20487;-76
2022/10/19 02:59:15;;;;;;;9.77;4.88;;;18.00;86.80;;;;;;4974918;28;20026;-76
2022/10/19 03:01:41;;;;;;;7.25;4.28;;;18.00;86.70;;;;;;4982494;28;20568;-76
2022/10/19 03:04:06;;;;;;;8.15;5.50;;;18.10;86.50;;;;;;5010830;28;20092;-76
2022/10/19 03:06:32;;;;;;;6.68;4.63;;;18.00;86.50;;;;;;4996036;28;20092;-76
2022/10/19 03:08:58;;;;;;;10.82;4.43;;;18.00;86.60;;;;;;4995939;28;20042;-76
2022/10/19 03:11:23;;;;;;;9.35;4.95;;;17.90;86.50;;;;;;4994411;28;20478;-76
2022/10/19 03:13:49;;;;;;;9.98;5.05;;;18.00;86.70;;;;;;4976192;28;20054;-76
2022/10/19 03:16:15;;;;;;;6.40;4.75;;;18.00;86.60;;;;;;4976990;28;20034;-76
2022/10/19 03:18:40;;;;;;;9.50;4.57;;;18.00;86.70;;;;;;4995885;28;20162;-76
2022/10/19 03:21:09;;;;;;;8.85;4.95;;;18.00;86.80;;;;;;4995347;28;20101;-76
2022/10/19 03:23:36;;;;;;;7.07;3.83;;;17.90;86.90;;;;;;5003072;28;20413;-76
2022/10/19 03:26:02;;;;;;;8.35;4.97;;;17.90;87.00;;;;;;4995838;28;20035;-76
2022/10/19 03:28:28;;;;;;;11.25;5.35;;;17.90;86.90;;;;;;5010102;28;20034;-76
2022/10/19 03:30:53;;;;;;;9.95;5.25;;;17.90;86.80;;;;;;4995520;28;20141;-76
2022/10/19 03:33:19;;;;;;;9.35;4.38;;;17.90;86.90;;;;;;4995637;28;20041;-76
2022/10/19 03:35:45;;;;;;;7.15;4.63;;;17.90;86.70;;;;;;4995010;28;20034;-76
2022/10/19 03:38:10;;;;;;;10.25;4.80;;;17.90;86.70;;;;;;4978566;28;20125;-76
2022/10/19 03:40:36;;;;;;;13.00;4.78;;;17.80;87.10;;;;;;4976237;28;20071;-76
2022/10/19 03:43:02;;;;;;;7.45;4.18;;;17.90;86.80;;;;;;4978450;28;20671;-76
2022/10/19 03:45:27;;;;;;;7.07;4.38;;;17.80;86.90;;;;;;4980027;28;20038;-76
2022/10/19 03:47:53;;;;;;;6.80;5.00;;;17.90;87.00;;;;;;4995064;28;20440;-76
2022/10/19 03:50:20;;;;;;;6.60;4.07;;;17.80;86.80;;;;;;4999119;28;20038;-76
2022/10/19 03:52:48;;;;;;;8.73;4.28;;;17.90;87.00;;;;;;4998259;28;20045;-76
2022/10/19 03:55:14;;;;;;;8.40;4.68;;;17.80;86.80;;;;;;4998956;28;20042;-76
2022/10/19 03:57:40;;;;;;;11.80;4.70;;;17.80;87.00;;;;;;4998682;28;20045;-76
2022/10/19 04:00:06;;;;;;;8.48;4.20;;;17.80;86.80;;;;;;5004668;28;20035;-76
2022/10/19 04:02:32;;;;;;;7.57;4.55;;;17.80;87.00;;;;;;4979596;28;20018;-76
2022/10/19 04:04:58;;;;;;;8.27;4.78;;;17.80;86.80;;;;;;4979584;28;20102;-76
2022/10/19 04:07:23;;;;;;;6.45;4.25;;;17.80;86.90;;;;;;4979401;28;20203;-76
2022/10/19 04:09:49;;;;;;;13.52;5.72;;;17.80;86.90;;;;;;4998110;28;20045;-76
2022/10/19 04:12:14;;;;;;;14.10;4.50;;;17.80;87.00;;;;;;4998170;28;20450;-76
2022/10/19 04:14:42;;;;;;;13.20;4.90;;;17.80;86.90;;;;;;4998699;28;20054;-76
2022/10/19 04:17:09;;;;;;;8.95;4.65;;;17.80;87.20;;;;;;4998636;28;20034;-76
2022/10/19 04:19:34;;;;;;;12.77;5.07;;;17.80;87.10;;;;;;4998202;28;20141;-76
2022/10/19 04:22:00;;;;;;;9.70;5.25;;;17.80;87.00;;;;;;5015851;28;20063;-76
2022/10/19 04:24:27;;;;;;;7.05;4.47;;;17.80;87.00;;;;;;5018114;28;20076;-76
2022/10/19 04:26:54;;;;;;;6.97;4.65;;;17.80;86.90;;;;;;5017736;28;20022;-76
2022/10/19 04:29:23;;;;;;;7.07;4.60;;;17.80;87.10;;;;;;4999840;28;20081;-74
2022/10/19 04:31:50;;;;;;;5.95;3.88;;;17.90;87.00;;;;;;4996196;28;20038;-78
2022/10/19 04:34:16;;;;;;;8.68;4.68;;;17.80;86.80;;;;;;4997807;28;20049;-77
2022/10/19 04:36:42;;;;;;;6.32;4.07;;;17.80;87.10;;;;;;4997758;28;20149;-77
2022/10/19 04:39:08;;;;;;;7.40;4.30;;;17.80;87.00;;;;;;4998208;28;20116;-77
2022/10/19 04:41:35;;;;;;;9.48;4.25;;;17.80;86.90;;;;;;4998235;28;20062;-77
2022/10/19 04:44:02;;;;;;;11.57;4.65;;;17.80;86.90;;;;;;4982258;28;20031;-78
2022/10/19 04:46:29;;;;;;;8.10;3.92;;;17.90;86.70;;;;;;4978511;28;20023;-77
2022/10/19 04:48:56;;;;;;;8.15;4.45;;;17.90;86.50;;;;;;4978351;28;20037;-76
2022/10/19 04:51:22;;;;;;;7.07;4.65;;;17.90;86.40;;;;;;4978456;28;20049;-76
2022/10/19 04:53:48;;;;;;;12.00;4.78;;;17.80;86.50;;;;;;4976553;28;20031;-76
2022/10/19 04:56:20;;;;;;;6.05;4.05;;;17.80;86.60;;;;;;4978197;28;20117;-76
2022/10/19 04:58:46;;;;;;;7.60;4.53;;;17.80;86.70;;;;;;4987284;28;20038;-78
2022/10/19 05:01:13;;;;;;;6.80;4.55;;;17.80;86.70;;;;;;4996668;28;20485;-77
2022/10/19 05:03:39;;;;;;;7.70;4.57;;;17.80;86.90;;;;;;4991390;28;20482;-76
2022/10/19 05:06:06;;;;;;;10.80;5.00;;;17.70;87.00;;;;;;4988935;28;20045;-76
2022/10/19 05:08:32;;;;;;;11.93;5.22;;;17.80;86.90;;;;;;4999438;28;20041;-76
2022/10/19 05:11:03;;;;;;;8.55;4.15;;;17.80;86.70;;;;;;5002324;28;20031;-75
2022/10/19 05:13:33;;;;;;;5.55;4.32;;;17.80;87.00;;;;;;4997566;28;20042;-76
2022/10/19 05:16:01;;;;;;;9.88;4.70;;;17.80;86.90;;;;;;4995624;28;20486;-75
2022/10/19 05:18:27;;;;;;;7.50;4.47;;;17.80;87.00;;;;;;4990882;28;20044;-76
2022/10/19 05:21:03;;;;;;;8.80;4.35;;;17.80;86.80;;;;;;4995932;28;20113;-76
2022/10/19 05:23:28;;;;;;;5.72;4.10;;;17.80;86.80;;;;;;4995069;28;20538;-76
2022/10/19 05:26:02;;;;;;;7.82;4.65;;;17.80;86.50;;;;;;4991055;28;20030;-76
2022/10/19 05:28:28;;;;;;;8.63;4.95;;;17.80;86.70;;;;;;4991941;28;20062;-76
2022/10/19 05:30:54;;;;;;;7.28;4.20;;;17.80;86.60;;;;;;4995502;28;20034;-76
2022/10/19 05:33:20;;;;;;;8.23;4.88;;;17.80;86.70;;;;;;4996918;28;20034;-75
2022/10/19 05:35:46;;;;;;;8.18;4.38;;;17.80;86.80;;;;;;4995274;28;20038;-75
2022/10/19 05:38:12;;;;;;;10.82;5.05;;;17.80;86.70;;;;;;4997378;28;20026;-76
2022/10/19 05:40:43;;;;;;;13.95;5.28;;;17.80;86.60;;;;;;4997567;28;20026;-76
2022/10/19 05:43:08;;;;;;;8.95;4.70;;;17.80;86.50;;;;;;4996936;28;20038;-76
2022/10/19 05:45:34;;;;;;;6.93;3.83;;;17.80;86.70;;;;;;4997315;28;20035;-75
2022/10/19 05:47:59;;;;;;;8.48;4.28;;;17.80;86.70;;;;;;4995333;28;20037;-76
2022/10/19 05:50:25;;;;;;;8.27;4.68;;;17.80;86.60;;;;;;4995386;28;20080;-75
2022/10/19 05:52:50;;;;;;;13.60;4.55;;;17.80;86.80;;;;;;4993792;28;20030;-76
2022/10/19 05:55:16;;;;;;;9.20;4.47;;;17.70;86.90;;;;;;4996008;28;20396;-76
2022/10/19 05:57:42;;;;;;;8.25;4.70;;;17.70;86.80;;;;;;4996541;28;20097;-75
2022/10/19 06:00:08;;;;;;;7.78;4.78;;;17.80;86.90;;;;;;5009915;28;20086;-76
2022/10/19 06:02:34;;;;;;;8.25;4.35;;;17.80;86.80;;;;;;5012029;28;20030;-76
2022/10/19 06:04:59;;;;;;;8.02;4.57;;;17.70;86.90;;;;;;4996128;28;20035;-76
2022/10/19 06:07:25;;;;;;;9.43;4.78;;;17.70;86.90;;;;;;4995734;28;20027;-76
2022/10/19 06:09:50;;;;;;;12.55;5.30;;;17.70;86.80;;;;;;5009686;28;20033;-75
2022/10/19 06:12:18;;;;;;;7.15;4.32;;;17.70;86.80;;;;;;4995531;28;20096;-75
2022/10/19 06:14:44;;;;;;;12.02;5.32;;;17.70;86.70;;;;;;4995998;28;20526;-76
2022/10/19 06:17:10;;;;;;;11.20;4.57;;;17.70;86.70;;;;;;4995467;28;20070;-75
2022/10/19 06:19:36;;;;;;;9.00;4.78;;;17.80;86.70;;;;;;4996038;28;20522;-76
2022/10/19 06:22:01;;;;;;;9.13;4.35;;;17.80;86.70;;;;;;4998815;28;20506;-75
2022/10/19 06:24:27;;;;;;;10.00;5.05;;;17.70;86.50;;;;;;5007551;28;20551;-76
2022/10/19 06:26:52;;;;;;;9.35;4.70;;;17.80;86.50;;;;;;4996796;28;20042;-75
2022/10/19 06:29:18;;;;;;;11.07;4.88;;;17.80;86.60;;;;;;4996283;28;20481;-75
2022/10/19 06:31:45;;;;;;;8.15;4.43;;;17.70;86.60;;;;;;4996539;28;20037;-75
2022/10/19 06:34:11;;;;;;;8.45;4.80;;;17.70;86.80;;;;;;4996086;28;20121;-76
2022/10/19 06:36:36;;;;;;;6.50;3.92;;;17.70;86.40;;;;;;4996611;28;20065;-75
2022/10/19 06:39:02;;;;;;;10.18;4.95;;;17.80;86.60;;;;;;5011568;28;20026;-75
2022/10/19 06:41:30;;;;;;;8.00;4.75;;;17.80;86.40;;;;;;4996802;28;20105;-76
2022/10/19 06:43:56;;;;;;;8.10;4.53;;;17.80;86.30;;;;;;4996049;28;20026;-75
2022/10/19 06:46:25;;;;;;;11.50;4.88;;;17.80;86.20;;;;;;4996489;28;20090;-75
2022/10/19 06:48:55;;;;;;;9.15;4.43;;;17.80;86.30;;;;;;4996456;28;20023;-76
2022/10/19 06:51:21;;;;;;;6.80;4.03;;;17.80;86.30;;;;;;4995243;28;20029;-75
2022/10/19 06:53:47;;;;;;;8.32;4.43;;;17.80;86.10;;;;;;4995881;28;20054;-75
2022/10/19 06:56:12;;;;;;;8.63;4.78;;;17.80;86.10;;;;;;4996431;28;20045;-75
2022/10/19 06:58:38;;;;;;;9.07;4.72;;;17.80;86.10;;;;;;4996210;28;20035;-75
2022/10/19 07:01:07;;;;;;;6.18;4.30;;;17.80;86.20;;;;;;4983474;28;20030;-76
2022/10/19 07:03:32;;;;;;;6.35;4.30;;;17.80;86.10;;;;;;4977260;28;20417;-76
2022/10/19 07:06:04;;;;;;;8.90;5.25;;;17.80;86.10;;;;;;4975334;28;20039;-75
2022/10/19 07:08:31;;;;;;;7.38;4.47;;;17.80;86.00;;;;;;4976794;28;20027;-75
2022/10/19 07:11:02;;;;;;;6.32;4.07;;;17.80;86.10;;;;;;4983370;28;20026;-76
2022/10/19 07:13:29;;;;;;;12.82;5.05;;;17.80;85.90;;;;;;4996180;28;20412;-76
2022/10/19 07:16:04;;;;;;;9.98;4.28;;;17.80;86.20;;;;;;4995105;28;20086;-75
2022/10/19 07:18:30;;;;;;;7.97;4.53;;;17.80;85.90;;;;;;4980769;28;20060;-75
2022/10/19 07:21:02;;;;;;;6.07;4.35;;;17.80;86.00;;;;;;4980799;28;20587;-76
2022/10/19 07:23:29;;;;;;;7.47;4.45;;;17.80;85.80;;;;;;5008850;28;20026;-76
2022/10/19 07:26:00;;;;;;;6.35;4.00;;;17.90;85.90;;;;;;4987832;28;20381;-75
2022/10/19 07:28:26;;;;;;;9.65;5.40;;;17.90;85.80;;;;;;4980729;28;20095;-75
2022/10/19 07:30:52;;;;;;;6.22;4.10;;;17.80;85.70;;;;;;4979218;28;20034;-75
2022/10/19 07:33:17;;;;;;;7.97;4.53;;;17.80;85.80;;;;;;4993287;28;20034;-76
2022/10/19 07:35:43;;;;;;;6.55;3.80;;;17.80;85.70;;;;;;4999867;28;20509;-75
2022/10/19 07:38:09;;;;;;;13.02;5.22;;;17.80;85.70;;;;;;4999808;28;20033;-75
2022/10/19 07:40:35;;;;;;;8.55;4.00;;;17.80;85.80;;;;;;4999300;28;20493;-75
2022/10/19 07:43:01;;;;;;;7.03;3.83;;;17.80;85.60;;;;;;4980337;28;20054;-75
2022/10/19 07:45:26;;;;;;;6.13;4.03;;;17.90;85.60;;;;;;4981717;28;20019;-76
2022/10/19 07:47:52;;;;;;;7.63;4.05;;;17.90;85.40;;;;;;4999684;28;20097;-75
2022/10/19 07:50:17;;;;;;;7.93;4.07;;;17.90;85.40;;;;;;4999583;28;20057;-75
2022/10/19 07:52:43;;;;;;;11.75;5.15;;;17.90;85.20;;;;;;4999147;28;20038;-76
2022/10/19 07:55:09;;;;;;;5.93;3.20;;;17.90;85.20;;;;;;4998228;28;20397;-76
2022/10/19 07:57:35;;;;;;;8.00;3.63;;;17.90;85.00;;;;;;4998249;28;20496;-76
2022/10/19 08:00:01;;;;;;;9.18;4.25;;;17.90;85.10;;;;;;4998672;28;20022;-75
2022/10/19 08:02:26;;;;;;;6.82;3.83;;;17.90;85.20;;;;;;4978547;28;20059;-76
2022/10/19 08:04:52;;;;;;;7.78;4.38;;;17.90;85.10;;;;;;4979951;28;20516;-75
2022/10/19 08:07:17;;;;;;;11.82;4.70;;;17.90;85.10;;;;;;4980659;28;20049;-75
2022/10/19 08:09:43;;;;;;;9.20;4.35;;;17.90;85.10;;;;;;4999256;28;20108;-75
2022/10/19 08:12:09;;;;;;;5.57;4.05;;;17.90;85.10;;;;;;4999181;28;20089;-75
2022/10/19 08:14:34;;;;;;;8.70;3.90;;;18.00;85.00;;;;;;4999093;28;20084;-75
2022/10/19 08:17:00;;;;;;;9.27;4.38;;;18.00;84.90;;;;;;4998481;28;20026;-76
2022/10/19 08:19:26;;;;;;;10.65;4.13;;;18.00;84.80;;;;;;4999047;28;20014;-75
2022/10/19 08:21:52;;;;;;;7.53;3.83;;;18.10;84.50;;;;;;4998838;28;20027;-76
2022/10/19 08:24:19;;;;;;;8.55;4.40;;;18.10;84.60;;;;;;5018716;28;20072;-75
2022/10/19 08:26:45;;;;;;;10.98;4.05;;;18.20;84.30;;;;;;4978600;28;20042;-75
2022/10/19 08:29:17;;;;;;;6.82;4.10;;;18.20;84.50;;;;;;4979424;28;20031;-75
2022/10/19 08:31:44;;;;;;;11.23;4.63;;;18.20;84.40;;;;;;4979311;28;20027;-75
2022/10/19 08:34:11;;;;;;;5.45;3.67;;;18.30;84.30;;;;;;4980895;28;20099;-75
2022/10/19 08:36:37;;;;;;;4.95;3.28;;;18.30;83.80;;;;;;4998732;28;20031;-76
2022/10/19 08:39:05;;;;;;;5.80;2.95;;;18.30;83.80;;;;;;4998318;28;20081;-76
2022/10/19 08:41:40;;;;;;;6.50;3.65;;;18.40;83.30;;;;;;4992458;28;20050;-76
2022/10/19 08:44:36;;;;;;;8.82;3.30;;;18.50;83.40;;;;;;4979444;28;20051;-76
2022/10/19 08:47:17;;;;;;;6.60;3.22;;;18.50;82.80;;;;;;4982376;28;20030;-75
2022/10/19 08:49:45;;;;;;;8.18;3.63;;;18.60;82.90;;;;;;4998561;28;20034;-75
2022/10/19 08:52:32;;;;;;;6.70;3.35;;;18.60;82.70;;;;;;4998670;28;20509;-76
2022/10/19 08:55:07;;;;;;;11.25;3.65;;;18.70;82.60;;;;;;4978981;28;20042;-76
2022/10/19 08:57:48;;;;;;;6.10;3.15;;;18.80;82.30;;;;;;4978948;28;20563;-75
2022/10/19 09:00:24;;;;;;;9.07;2.97;;;18.80;82.20;;;;;;4987490;28;20027;-76
2022/10/19 09:02:56;;;;;;;4.97;3.28;;;18.90;82.00;;;;;;4998209;28;20022;-76
2022/10/19 09:05:27;;;;;;;8.05;3.40;;;19.00;81.90;;;;;;4998194;28;20038;-76
2022/10/19 09:07:53;;;;;;;4.13;2.60;;;19.00;81.90;;;;;;4997835;28;20045;-75
2022/10/19 09:10:27;;;;;;;7.35;3.35;;;19.10;81.20;;;;;;4996663;28;20084;-75
2022/10/19 09:13:21;;;;;;;5.32;3.13;;;19.10;81.30;;;;;;4997671;28;20069;-76
2022/10/19 09:15:49;;;;;;;5.35;3.03;;;19.30;81.20;;;;;;4986653;28;20082;-76
2022/10/19 09:18:26;;;;;;;6.68;3.65;;;19.30;80.80;;;;;;4993433;28;20023;-75
2022/10/19 09:21:03;;;;;;;8.68;3.13;;;19.30;80.30;;;;;;4978426;28;20045;-76
2022/10/19 09:23:50;;;;;;;5.03;2.95;;;19.50;80.20;;;;;;5006830;28;20030;-75
2022/10/19 09:26:18;;;;;;;8.63;4.15;;;19.50;79.70;;;;;;5002228;28;20049;-76
2022/10/19 09:29:15;;;;;;;3.53;2.75;;;19.60;79.80;;;;;;5012876;28;20117;-75
2022/10/19 09:31:44;;;;;;;7.47;3.33;;;19.60;78.90;;;;;;4997141;28;20130;-75
2022/10/19 09:34:42;;;;;;;3.95;2.65;;;19.70;79.30;;;;;;4997708;28;20034;-76
2022/10/19 09:37:10;;;;;;;6.20;3.00;;;19.70;78.90;;;;;;4997168;28;20193;-75
2022/10/19 09:39:36;;;;;;;6.00;3.38;;;19.80;78.90;;;;;;4997612;28;20037;-76
2022/10/19 09:42:22;;;;;;;5.55;3.60;;;19.90;78.60;;;;;;4997051;28;20031;-76
2022/10/19 09:44:49;;;;;;;5.10;3.13;;;19.90;77.40;;;;;;4997608;28;20026;-76
2022/10/19 09:47:37;;;;;;;6.32;3.28;;;20.00;78.20;;;;;;4997231;28;20042;-76
2022/10/19 09:50:15;;;;;;;6.38;3.20;;;20.10;77.50;;;;;;4997480;28;20508;-76
2022/10/19 09:52:43;;;;;;;4.70;2.80;;;20.20;77.30;;;;;;4987832;28;20113;-76
2022/10/19 09:55:57;;;;;;;4.90;2.83;;;20.30;77.10;;;;;;4977858;28;20041;-76
2022/10/19 09:58:25;;;;;;;5.13;2.92;;;20.30;77.00;;;;;;4996161;28;20292;-76
2022/10/19 10:00:56;;;;;;;6.53;3.00;;;20.40;77.10;;;;;;4995356;28;20030;-76
2022/10/19 10:03:39;;;;;;;6.65;2.45;;;20.30;76.60;;;;;;4996699;28;20077;-75
2022/10/19 10:06:07;;;;;;;5.03;2.70;;;20.30;76.20;;;;;;4995825;28;20065;-75
2022/10/19 10:08:37;;;;;;;6.75;3.40;;;20.30;76.00;;;;;;4996641;28;20404;-76
2022/10/19 10:11:15;;;;;;;7.80;3.53;;;20.40;76.50;;;;;;4995605;28;20028;-76
2022/10/19 10:13:47;;;;;;;6.10;2.55;;;20.40;77.00;;;;;;4996925;28;20137;-75
2022/10/19 10:16:15;;;;;;;7.13;3.80;;;20.40;76.60;;;;;;4996813;28;20657;-76
2022/10/19 10:19:04;;;;;;;5.75;2.50;;;20.40;76.40;;;;;;4996414;28;20555;-76
2022/10/19 10:21:45;;;;;;;7.60;2.85;;;20.40;76.30;;;;;;4996795;28;20045;-75
2022/10/19 10:24:10;;;;;;;8.50;3.00;;;20.40;76.10;;;;;;4993151;28;20030;-76
2022/10/19 10:26:43;;;;;;;6.47;2.80;;;20.50;76.60;;;;;;4996930;28;20097;-76
2022/10/19 10:29:28;;;;;;;6.65;3.20;;;20.50;76.60;;;;;;4996856;28;20058;-76
2022/10/19 10:31:59;;;;;;;7.50;2.95;;;20.70;76.50;;;;;;4985609;28;20019;-75
2022/10/19 10:34:38;;;;;;;10.35;3.47;;;20.80;76.50;;;;;;4976092;28;20027;-75
2022/10/19 10:37:06;;;;;;;6.22;2.60;;;20.80;75.60;;;;;;4975947;28;20524;-75
2022/10/19 10:39:39;;;;;;;8.43;3.08;;;20.90;75.20;;;;;;4992247;28;20057;-75
2022/10/19 10:42:11;;;;;;;6.65;2.60;;;20.90;74.60;;;;;;4996747;28;20026;-75
2022/10/19 10:44:43;;;;;;;7.47;3.10;;;21.00;75.50;;;;;;4996581;28;20038;-76
2022/10/19 10:47:15;;;;;;;4.68;2.33;;;21.10;74.80;;;;;;4995834;28;20026;-75
2022/10/19 10:49:42;;;;;;;6.22;2.80;;;21.10;74.60;;;;;;5010634;28;20405;-75
2022/10/19 10:52:14;;;;;;;6.72;2.90;;;21.20;74.40;;;;;;5003435;28;20022;-75
2022/10/19 10:54:40;;;;;;;10.18;3.53;;;21.30;74.80;;;;;;5015175;28;20060;-76
2022/10/19 10:57:12;;;;;;;8.13;3.58;;;21.30;74.50;;;;;;5011066;28;20022;-75
2022/10/19 10:59:54;;;;;;;6.05;2.53;;;21.30;74.70;;;;;;4995874;28;20037;-75
2022/10/19 11:02:45;;;;;;;8.73;3.10;;;21.30;74.20;;;;;;4996197;28;20600;-76
2022/10/19 11:05:25;;;;;;;7.75;3.28;;;21.40;74.70;;;;;;4996289;28;20030;-76
2022/10/19 11:07:57;;;;;;;6.97;2.72;;;21.50;73.70;;;;;;4994097;28;20027;-76
2022/10/19 11:10:31;;;;;;;6.63;3.17;;;21.60;73.50;;;;;;4996291;28;20038;-76
2022/10/19 11:13:03;;;;;;;9.00;2.80;;;21.70;73.10;;;;;;4994815;28;20053;-76
2022/10/19 11:15:51;;;;;;;6.07;2.53;;;21.70;73.00;;;;;;4996238;28;20579;-76
2022/10/19 11:18:39;;;;;;;6.20;3.28;;;21.70;72.70;;;;;;4995439;28;20027;-76
2022/10/19 11:21:10;;;;;;;10.07;2.88;;;21.70;72.50;;;;;;4995619;28;20433;-76
2022/10/19 11:23:38;;;;;;;6.65;2.72;;;21.80;72.60;;;;;;5011216;28;20030;-75
2022/10/19 11:26:25;;;;;;;5.32;2.40;;;21.80;72.50;;;;;;5015620;28;20087;-75
2022/10/19 11:28:54;;;;;;;6.18;2.70;;;21.90;71.40;;;;;;4992676;28;20498;-76
2022/10/19 11:31:31;;;;;;;8.40;3.13;;;21.90;72.40;;;;;;4992641;28;20038;-76
2022/10/19 11:34:10;;;;;;;10.35;3.72;;;22.00;72.80;;;;;;5011000;28;20030;-75
2022/10/19 11:37:02;;;;;;;8.80;3.33;;;22.00;71.60;;;;;;4995847;28;20478;-75
2022/10/19 11:39:59;;;;;;;7.82;2.95;;;22.00;71.30;;;;;;4996040;28;20397;-75
2022/10/19 11:42:48;;;;;;;4.63;2.90;;;22.10;71.30;;;;;;4976520;28;20027;-76
2022/10/19 11:45:45;;;;;;;5.78;3.10;;;22.20;71.80;;;;;;4991663;28;20109;-76
2022/10/19 11:48:43;;;;;;;7.35;2.60;;;22.10;71.90;;;;;;4995211;28;20117;-75
2022/10/19 11:51:19;;;;;;;9.27;3.13;;;22.10;71.20;;;;;;4994598;28;20034;-76
2022/10/19 11:53:48;;;;;;;5.45;3.03;;;22.20;70.90;;;;;;4995811;28;20049;-76
2022/10/19 11:56:56;;;;;;;8.13;2.83;;;22.30;71.80;;;;;;4982421;28;20050;-75
2022/10/19 11:59:24;;;;;;;7.20;2.88;;;22.40;69.90;;;;;;4993407;28;20045;-76
2022/10/19 12:02:01;;;;;;;7.43;2.97;;;22.50;70.20;;;;;;4993446;28;20030;-75
2022/10/19 12:04:52;;;;;;;5.03;2.53;;;22.60;70.00;;;;;;4987283;28;20035;-76
2022/10/19 12:07:29;;;;;;;7.90;2.85;;;22.50;69.80;;;;;;4995857;28;20776;-77
2022/10/19 12:10:17;;;;;;;10.65;3.63;;;22.50;70.60;;;;;;4997388;28;20026;-76
2022/10/19 12:12:57;;;;;;;8.10;3.92;;;22.40;70.30;;;;;;4995599;28;20524;-77
2022/10/19 12:15:55;;;;;;;8.40;3.05;;;22.30;70.60;;;;;;5012007;28;20057;-76
2022/10/19 12:18:31;;;;;;;6.65;3.15;;;22.40;70.90;;;;;;4995776;28;20173;-77
2022/10/19 12:21:01;;;;;;;6.75;3.25;;;22.50;71.40;;;;;;4992865;28;20046;-77
2022/10/19 12:23:34;;;;;;;8.75;3.17;;;22.60;70.60;;;;;;4996196;28;20069;-76
2022/10/19 12:26:03;;;;;;;10.02;2.92;;;22.50;70.20;;;;;;4995961;28;20041;-76
2022/10/19 12:28:39;;;;;;;6.50;3.13;;;22.60;70.40;;;;;;4996375;28;20117;-77
2022/10/19 12:31:06;;;;;;;6.72;2.53;;;22.60;70.30;;;;;;4997830;28;20033;-76
2022/10/19 12:33:46;;;;;;;3.35;2.55;;;22.60;69.30;;;;;;4997002;28;20019;-76
2022/10/19 12:36:24;;;;;;;6.75;3.08;;;22.70;69.20;;;;;;4995347;28;20034;-76
2022/10/19 12:39:00;;;;;;;6.47;2.67;;;22.80;69.30;;;;;;4996796;28;20026;-77
2022/10/19 12:41:38;;;;;;;6.97;3.17;;;22.90;69.10;;;;;;4997422;28;20030;-76
2022/10/19 12:44:20;;;;;;;8.20;2.65;;;22.90;69.10;;;;;;4995969;28;20029;-76
2022/10/19 12:46:52;;;;;;;6.50;2.58;;;23.00;69.20;;;;;;4996793;28;20026;-76
2022/10/19 12:49:47;;;;;;;6.45;3.10;;;23.00;69.40;;;;;;5009956;28;20125;-76
2022/10/19 12:52:15;;;;;;;7.13;2.65;;;23.00;68.90;;;;;;4994861;28;20037;-76
2022/10/19 12:54:42;;;;;;;9.68;3.35;;;23.00;68.50;;;;;;4994939;28;20014;-76
2022/10/19 12:57:28;;;;;;;11.50;2.65;;;23.00;68.50;;;;;;4993631;28;20070;-76
2022/10/19 13:00:00;;;;;;;5.88;2.95;;;23.00;68.80;;;;;;4995009;28;20051;-76
2022/10/19 13:02:31;;;;;;;10.73;3.50;;;23.00;68.60;;;;;;4994148;28;20030;-76
2022/10/19 13:04:57;;;;;;;8.95;2.78;;;23.10;68.30;;;;;;4996089;28;20014;-75